createdAt,value
2019-03-29T00:00:03.413Z,26.02
2019-03-29T00:00:14.836Z,25.95
2019-03-29T00:00:26.691Z,25.99
2019-03-29T00:00:38.492Z,26.01
2019-03-29T00:00:50.194Z,25.99
2019-03-29T00:01:01.892Z,26.09
2019-03-29T00:01:13.592Z,26.11
2019-03-29T00:01:25.374Z,26.10
2019-03-29T00:01:37.351Z,26.11
2019-03-29T00:01:49.070Z,26.09
2019-03-29T00:02:00.794Z,25.99
2019-03-29T00:02:11.972Z,26.01
2019-03-29T00:02:23.774Z,26.02
2019-03-29T00:02:35.491Z,26.06
2019-03-29T00:02:46.790Z,25.92
2019-03-29T00:02:58.670Z,25.90
2019-03-29T00:03:09.862Z,25.83
2019-03-29T00:03:21.555Z,25.91
2019-03-29T00:03:32.570Z,25.94
2019-03-29T00:03:43.633Z,25.92
2019-03-29T00:03:55.531Z,26.01
2019-03-29T00:04:07.453Z,26.03
2019-03-29T00:04:19.172Z,26.02
2019-03-29T00:04:31.034Z,25.97
2019-03-29T00:04:42.732Z,25.95
2019-03-29T00:04:54.493Z,25.94
2019-03-29T00:05:05.569Z,25.94
2019-03-29T00:05:17.312Z,25.88
2019-03-29T00:05:29.032Z,25.86
2019-03-29T00:05:40.173Z,25.95
2019-03-29T00:05:51.256Z,25.97
2019-03-29T00:06:02.536Z,25.90
2019-03-29T00:06:14.234Z,25.93
2019-03-29T00:06:25.954Z,25.91
2019-03-29T00:06:37.790Z,25.88
2019-03-29T00:06:49.491Z,25.95
2019-03-29T00:07:00.554Z,25.95
2019-03-29T00:07:12.590Z,25.97
2019-03-29T00:07:38.575Z,25.99
2019-03-29T00:07:41.838Z,26.09
2019-03-29T00:07:53.674Z,26.09
2019-03-29T00:08:05.380Z,26.10
2019-03-29T00:08:17.072Z,26.08
2019-03-29T00:08:28.832Z,26.09
2019-03-29T00:08:40.575Z,26.08
2019-03-29T00:08:51.616Z,26.03
2019-03-29T00:09:03.391Z,26.09
2019-03-29T00:09:15.350Z,26.09
2019-03-29T00:09:26.509Z,26.04
2019-03-29T00:09:37.531Z,25.97
2019-03-29T00:09:49.393Z,25.94
2019-03-29T00:10:01.096Z,25.88
2019-03-29T00:10:13.010Z,25.96
2019-03-29T00:10:24.974Z,26.08
2019-03-29T00:10:36.769Z,26.07
2019-03-29T00:10:48.511Z,26.13
2019-03-29T00:11:00.377Z,26.09
2019-03-29T00:11:11.432Z,26.06
2019-03-29T00:11:23.150Z,26.09
2019-03-29T00:11:34.291Z,26.01
2019-03-29T00:11:46.215Z,26.07
2019-03-29T00:11:57.950Z,26.09
2019-03-29T00:12:09.676Z,26.06
2019-03-29T00:12:21.511Z,26.06
2019-03-29T00:12:33.213Z,26.03
2019-03-29T00:12:45.231Z,26.07
2019-03-29T00:12:57.281Z,26.13
2019-03-29T00:13:09.068Z,26.14
2019-03-29T00:13:21.152Z,26.08
2019-03-29T00:13:33.014Z,26.14
2019-03-29T00:13:44.978Z,26.13
2019-03-29T00:13:56.975Z,26.13
2019-03-29T00:14:08.211Z,26.22
2019-03-29T00:14:23.272Z,26.18
2019-03-29T00:14:35.473Z,26.10
2019-03-29T00:14:47.432Z,26.10
2019-03-29T00:14:59.193Z,26.09
2019-03-29T00:15:11.072Z,26.05
2019-03-29T00:15:22.672Z,26.06
2019-03-29T00:15:34.312Z,26.02
2019-03-29T00:15:45.753Z,26.05
2019-03-29T00:15:57.779Z,26.05
2019-03-29T00:16:09.932Z,26.18
2019-03-29T00:16:21.649Z,26.24
2019-03-29T00:16:33.373Z,26.17
2019-03-29T00:16:45.230Z,26.20
2019-03-29T00:16:56.931Z,26.22
2019-03-29T00:17:08.713Z,26.23
2019-03-29T00:17:20.416Z,26.16
2019-03-29T00:17:32.210Z,26.08
2019-03-29T00:17:44.142Z,26.17
2019-03-29T00:17:55.874Z,26.17
2019-03-29T00:18:06.941Z,26.29
2019-03-29T00:18:18.823Z,26.28
2019-03-29T00:18:30.572Z,26.20
2019-03-29T00:18:41.640Z,26.24
2019-03-29T00:18:53.356Z,26.20
2019-03-29T00:19:05.073Z,26.15
2019-03-29T00:19:16.153Z,26.17
2019-03-29T00:19:27.915Z,26.21
2019-03-29T00:19:39.812Z,26.08
2019-03-29T00:19:51.511Z,26.10
2019-03-29T00:20:05.997Z,26.10
2019-03-29T00:20:18.092Z,26.10
2019-03-29T00:20:29.792Z,26.12
2019-03-29T00:20:41.690Z,26.06
2019-03-29T00:20:53.449Z,26.13
2019-03-29T00:21:05.174Z,26.13
2019-03-29T00:21:16.892Z,26.01
2019-03-29T00:21:28.573Z,26.01
2019-03-29T00:21:40.274Z,26.01
2019-03-29T00:21:51.973Z,26.01
2019-03-29T00:22:03.233Z,26.01
2019-03-29T00:22:14.272Z,26.05
2019-03-29T00:22:26.194Z,26.00
2019-03-29T00:22:38.149Z,26.01
2019-03-29T00:22:49.309Z,26.12
2019-03-29T00:23:01.132Z,26.12
2019-03-29T00:23:12.892Z,26.06
2019-03-29T00:23:24.677Z,26.06
2019-03-29T00:23:35.692Z,26.06
2019-03-29T00:23:46.756Z,26.06
2019-03-29T00:24:06.567Z,26.09
2019-03-29T00:24:15.246Z,26.13
2019-03-29T00:24:26.851Z,26.13
2019-03-29T00:24:37.969Z,26.08
2019-03-29T00:24:49.732Z,26.12
2019-03-29T00:25:01.399Z,26.16
2019-03-29T00:25:12.732Z,26.06
2019-03-29T00:25:24.434Z,26.13
2019-03-29T00:25:36.132Z,26.18
2019-03-29T00:25:47.912Z,26.12
2019-03-29T00:25:59.097Z,26.12
2019-03-29T00:26:11.075Z,26.16
2019-03-29T00:26:22.189Z,26.18
2019-03-29T00:26:33.913Z,26.20
2019-03-29T00:26:45.951Z,26.22
2019-03-29T00:26:57.813Z,26.17
2019-03-29T00:27:09.530Z,26.10
2019-03-29T00:27:21.313Z,26.17
2019-03-29T00:27:33.110Z,26.18
2019-03-29T00:27:45.169Z,26.14
2019-03-29T00:27:56.911Z,26.20
2019-03-29T00:28:08.731Z,26.16
2019-03-29T00:28:19.879Z,26.12
2019-03-29T00:28:31.574Z,26.07
2019-03-29T00:28:43.537Z,26.02
2019-03-29T00:28:55.306Z,25.94
2019-03-29T00:29:07.250Z,25.98
2019-03-29T00:29:18.993Z,25.98
2019-03-29T00:29:30.674Z,25.99
2019-03-29T00:29:42.374Z,26.13
2019-03-29T00:29:54.258Z,26.12
2019-03-29T00:30:05.970Z,26.05
2019-03-29T00:30:17.953Z,26.09
2019-03-29T00:30:29.833Z,26.11
2019-03-29T00:30:41.571Z,26.09
2019-03-29T00:30:53.390Z,26.09
2019-03-29T00:31:05.115Z,26.06
2019-03-29T00:31:16.130Z,26.08
2019-03-29T00:31:27.218Z,26.09
2019-03-29T00:31:39.416Z,25.99
2019-03-29T00:31:51.772Z,26.06
2019-03-29T00:32:02.853Z,26.02
2019-03-29T00:32:14.773Z,26.03
2019-03-29T00:32:26.691Z,26.07
2019-03-29T00:32:38.713Z,26.08
2019-03-29T00:32:50.569Z,26.05
2019-03-29T00:33:02.329Z,26.16
2019-03-29T00:33:14.196Z,26.20
2019-03-29T00:33:26.249Z,26.19
2019-03-29T00:33:38.089Z,26.16
2019-03-29T00:33:50.081Z,26.20
2019-03-29T00:34:01.910Z,26.18
2019-03-29T00:34:13.652Z,26.09
2019-03-29T00:34:25.412Z,26.11
2019-03-29T00:34:36.759Z,26.12
2019-03-29T00:34:48.814Z,26.16
2019-03-29T00:35:00.675Z,26.15
2019-03-29T00:35:12.212Z,26.09
2019-03-29T00:35:24.094Z,26.09
2019-03-29T00:35:35.776Z,26.11
2019-03-29T00:35:47.571Z,26.12
2019-03-29T00:35:59.866Z,26.10
2019-03-29T00:36:11.653Z,26.12
2019-03-29T00:36:23.353Z,26.15
2019-03-29T00:36:34.369Z,26.12
2019-03-29T00:36:46.051Z,26.16
2019-03-29T00:36:57.771Z,26.12
2019-03-29T00:37:09.573Z,26.12
2019-03-29T00:37:20.593Z,26.10
2019-03-29T00:37:32.297Z,26.09
2019-03-29T00:37:53.407Z,26.13
2019-03-29T00:38:00.710Z,26.18
2019-03-29T00:38:12.468Z,26.16
2019-03-29T00:38:24.193Z,26.13
2019-03-29T00:38:35.239Z,26.07
2019-03-29T00:38:47.011Z,26.04
2019-03-29T00:38:58.772Z,26.01
2019-03-29T00:39:10.213Z,26.01
2019-03-29T00:39:22.152Z,25.98
2019-03-29T00:39:33.857Z,25.98
2019-03-29T00:39:44.894Z,26.05
2019-03-29T00:39:56.691Z,25.98
2019-03-29T00:40:08.394Z,26.07
2019-03-29T00:40:19.455Z,26.07
2019-03-29T00:40:31.154Z,26.02
2019-03-29T00:40:42.877Z,26.00
2019-03-29T00:40:53.974Z,25.94
2019-03-29T00:41:06.110Z,25.97
2019-03-29T00:41:17.852Z,26.07
2019-03-29T00:41:29.554Z,26.04
2019-03-29T00:41:41.131Z,25.99
2019-03-29T00:41:52.352Z,26.04
2019-03-29T00:42:04.273Z,26.08
2019-03-29T00:42:16.971Z,26.10
2019-03-29T00:42:29.056Z,26.16
2019-03-29T00:42:40.130Z,26.15
2019-03-29T00:42:51.992Z,26.14
2019-03-29T00:43:03.695Z,26.09
2019-03-29T00:43:15.575Z,26.07
2019-03-29T00:43:27.274Z,26.02
2019-03-29T00:43:38.297Z,26.09
2019-03-29T00:43:50.071Z,26.12
2019-03-29T00:44:01.813Z,26.14
2019-03-29T00:44:13.532Z,26.13
2019-03-29T00:44:25.316Z,26.20
2019-03-29T00:44:37.010Z,26.23
2019-03-29T00:44:48.033Z,26.21
2019-03-29T00:44:59.071Z,26.24
2019-03-29T00:45:10.876Z,26.17
2019-03-29T00:45:22.621Z,26.20
2019-03-29T00:45:34.411Z,26.09
2019-03-29T00:45:46.490Z,26.07
2019-03-29T00:45:58.395Z,26.09
2019-03-29T00:46:10.384Z,26.19
2019-03-29T00:46:22.453Z,26.18
2019-03-29T00:46:34.171Z,26.08
2019-03-29T00:46:45.871Z,26.07
2019-03-29T00:46:57.654Z,26.07
2019-03-29T00:47:09.350Z,26.04
2019-03-29T00:47:21.291Z,26.08
2019-03-29T00:47:32.393Z,26.12
2019-03-29T00:47:44.150Z,26.09
2019-03-29T00:47:56.111Z,26.01
2019-03-29T00:48:07.974Z,26.12
2019-03-29T00:48:19.011Z,26.22
2019-03-29T00:48:30.710Z,26.23
2019-03-29T00:48:41.714Z,26.24
2019-03-29T00:48:53.452Z,26.18
2019-03-29T00:49:05.173Z,26.18
2019-03-29T00:49:17.091Z,26.19
2019-03-29T00:49:29.071Z,26.23
2019-03-29T00:49:41.002Z,26.18
2019-03-29T00:49:52.771Z,26.20
2019-03-29T00:50:04.456Z,26.16
2019-03-29T00:50:16.170Z,26.22
2019-03-29T00:50:27.854Z,26.20
2019-03-29T00:50:39.673Z,26.16
2019-03-29T00:50:51.437Z,26.11
2019-03-29T00:51:03.196Z,26.07
2019-03-29T00:51:14.912Z,26.07
2019-03-29T00:51:26.631Z,26.12
2019-03-29T00:51:37.651Z,26.12
2019-03-29T00:51:49.411Z,26.14
2019-03-29T00:52:01.097Z,26.09
2019-03-29T00:52:12.889Z,26.09
2019-03-29T00:52:24.631Z,26.12
2019-03-29T00:52:36.436Z,26.15
2019-03-29T00:52:47.611Z,26.08
2019-03-29T00:52:59.340Z,26.07
2019-03-29T00:53:11.270Z,26.07
2019-03-29T00:53:23.053Z,26.05
2019-03-29T00:53:35.800Z,26.13
2019-03-29T00:53:47.595Z,26.22
2019-03-29T00:53:58.673Z,26.22
2019-03-29T00:54:10.130Z,26.22
2019-03-29T00:54:21.830Z,26.14
2019-03-29T00:54:32.909Z,26.11
2019-03-29T00:54:44.611Z,26.19
2019-03-29T00:54:56.311Z,26.18
2019-03-29T00:55:08.011Z,26.14
2019-03-29T00:55:20.211Z,26.11
2019-03-29T00:55:32.634Z,26.12
2019-03-29T00:55:43.635Z,26.18
2019-03-29T00:55:54.794Z,26.20
2019-03-29T00:56:05.871Z,26.20
2019-03-29T00:56:17.652Z,26.20
2019-03-29T00:56:29.353Z,26.24
2019-03-29T00:56:41.133Z,26.23
2019-03-29T00:56:52.153Z,26.12
2019-03-29T00:57:04.869Z,26.09
2019-03-29T00:57:16.730Z,26.05
2019-03-29T00:57:28.431Z,26.12
2019-03-29T00:57:40.231Z,26.18
2019-03-29T00:57:51.256Z,26.20
2019-03-29T00:58:02.630Z,26.18
2019-03-29T00:58:14.473Z,26.11
2019-03-29T00:58:26.210Z,26.14
2019-03-29T00:58:37.935Z,26.11
2019-03-29T00:58:49.633Z,26.08
2019-03-29T00:59:00.632Z,26.05
2019-03-29T00:59:11.671Z,26.02
2019-03-29T00:59:22.711Z,26.07
2019-03-29T00:59:33.769Z,26.16
2019-03-29T00:59:45.474Z,26.12
2019-03-29T00:59:56.551Z,26.12
2019-03-29T01:00:08.251Z,26.18
2019-03-29T01:00:20.090Z,26.18
2019-03-29T01:00:31.953Z,26.22
2019-03-29T01:00:45.409Z,26.22
2019-03-29T01:00:57.197Z,26.18
2019-03-29T01:01:09.050Z,26.19
2019-03-29T01:01:21.048Z,26.19
2019-03-29T01:01:32.834Z,26.18
2019-03-29T01:01:44.593Z,26.18
2019-03-29T01:01:56.354Z,26.16
2019-03-29T01:02:08.072Z,26.12
2019-03-29T01:02:19.790Z,26.12
2019-03-29T01:02:31.532Z,26.15
2019-03-29T01:02:43.232Z,26.11
2019-03-29T01:02:54.951Z,26.12
2019-03-29T01:03:05.956Z,26.15
2019-03-29T01:03:17.792Z,26.13
2019-03-29T01:03:28.877Z,26.15
2019-03-29T01:03:40.594Z,26.14
2019-03-29T01:03:51.613Z,26.18
2019-03-29T01:04:03.314Z,26.23
2019-03-29T01:04:14.355Z,26.21
2019-03-29T01:04:26.094Z,26.23
2019-03-29T01:04:37.849Z,26.29
2019-03-29T01:04:48.879Z,26.28
2019-03-29T01:05:00.573Z,26.30
2019-03-29T01:05:11.656Z,26.23
2019-03-29T01:05:22.693Z,26.22
2019-03-29T01:05:34.472Z,26.20
2019-03-29T01:05:46.877Z,26.18
2019-03-29T01:05:58.733Z,26.14
2019-03-29T01:06:10.790Z,26.13
2019-03-29T01:06:22.711Z,26.20
2019-03-29T01:06:34.574Z,26.19
2019-03-29T01:06:45.691Z,26.11
2019-03-29T01:06:57.594Z,26.14
2019-03-29T01:07:08.611Z,26.11
2019-03-29T01:07:20.293Z,26.11
2019-03-29T01:07:32.015Z,26.14
2019-03-29T01:07:43.774Z,26.11
2019-03-29T01:08:07.219Z,26.09
2019-03-29T01:08:11.790Z,26.05
2019-03-29T01:08:23.493Z,26.07
2019-03-29T01:08:35.294Z,26.08
2019-03-29T01:08:47.033Z,26.06
2019-03-29T01:08:58.036Z,26.12
2019-03-29T01:09:09.034Z,26.20
2019-03-29T01:09:21.039Z,26.23
2019-03-29T01:09:32.091Z,26.30
2019-03-29T01:09:44.173Z,26.31
2019-03-29T01:09:56.262Z,26.27
2019-03-29T01:10:08.377Z,26.23
2019-03-29T01:10:20.114Z,26.23
2019-03-29T01:10:31.994Z,26.26
2019-03-29T01:10:43.013Z,26.25
2019-03-29T01:10:54.056Z,26.26
2019-03-29T01:11:05.194Z,26.16
2019-03-29T01:11:17.056Z,26.20
2019-03-29T01:11:28.254Z,26.20
2019-03-29T01:11:40.939Z,26.22
2019-03-29T01:11:52.934Z,26.27
2019-03-29T01:12:04.671Z,26.25
2019-03-29T01:12:15.710Z,26.23
2019-03-29T01:12:26.717Z,26.22
2019-03-29T01:12:38.554Z,26.20
2019-03-29T01:12:50.252Z,26.13
2019-03-29T01:13:01.251Z,26.09
2019-03-29T01:13:12.977Z,26.13
2019-03-29T01:13:24.928Z,26.19
2019-03-29T01:13:36.691Z,26.22
2019-03-29T01:13:48.391Z,26.23
2019-03-29T01:14:00.152Z,26.19
2019-03-29T01:14:11.929Z,26.22
2019-03-29T01:14:23.749Z,26.22
2019-03-29T01:14:34.754Z,26.22
2019-03-29T01:14:45.813Z,26.16
2019-03-29T01:14:56.872Z,26.12
2019-03-29T01:15:09.120Z,26.13
2019-03-29T01:15:21.152Z,26.16
2019-03-29T01:15:32.868Z,26.16
2019-03-29T01:15:44.672Z,26.15
2019-03-29T01:15:55.698Z,26.16
2019-03-29T01:16:07.711Z,26.16
2019-03-29T01:16:19.490Z,26.26
2019-03-29T01:16:31.274Z,26.25
2019-03-29T01:16:42.974Z,26.30
2019-03-29T01:16:54.198Z,26.29
2019-03-29T01:17:05.896Z,26.37
2019-03-29T01:17:17.572Z,26.25
2019-03-29T01:17:28.634Z,26.34
2019-03-29T01:17:40.352Z,26.30
2019-03-29T01:17:51.413Z,26.25
2019-03-29T01:18:02.672Z,26.23
2019-03-29T01:18:13.936Z,26.23
2019-03-29T01:18:25.009Z,26.22
2019-03-29T01:18:37.943Z,26.26
2019-03-29T01:18:49.934Z,26.29
2019-03-29T01:19:01.712Z,26.20
2019-03-29T01:19:13.455Z,26.19
2019-03-29T01:19:24.492Z,26.30
2019-03-29T01:19:35.534Z,26.31
2019-03-29T01:19:47.255Z,26.27
2019-03-29T01:19:58.970Z,26.27
2019-03-29T01:20:10.670Z,26.20
2019-03-29T01:20:21.920Z,26.22
2019-03-29T01:20:33.813Z,26.29
2019-03-29T01:20:45.571Z,26.26
2019-03-29T01:20:57.315Z,26.24
2019-03-29T01:21:09.012Z,26.32
2019-03-29T01:21:20.852Z,26.30
2019-03-29T01:21:32.725Z,26.36
2019-03-29T01:21:44.573Z,26.34
2019-03-29T01:21:56.534Z,26.31
2019-03-29T01:22:07.550Z,26.22
2019-03-29T01:22:18.632Z,26.26
2019-03-29T01:22:30.350Z,26.29
2019-03-29T01:22:41.352Z,26.22
2019-03-29T01:22:53.150Z,26.16
2019-03-29T01:23:04.891Z,26.20
2019-03-29T01:23:16.616Z,26.21
2019-03-29T01:23:27.672Z,26.18
2019-03-29T01:23:39.373Z,26.15
2019-03-29T01:23:51.074Z,26.20
2019-03-29T01:24:02.777Z,26.23
2019-03-29T01:24:14.472Z,26.23
2019-03-29T01:24:26.252Z,26.25
2019-03-29T01:24:37.951Z,26.18
2019-03-29T01:24:49.934Z,26.23
2019-03-29T01:25:01.713Z,26.25
2019-03-29T01:25:13.610Z,26.25
2019-03-29T01:25:25.334Z,26.22
2019-03-29T01:25:37.096Z,26.14
2019-03-29T01:25:48.990Z,26.11
2019-03-29T01:26:01.022Z,26.11
2019-03-29T01:26:12.793Z,26.08
2019-03-29T01:26:24.516Z,26.07
2019-03-29T01:26:36.261Z,26.11
2019-03-29T01:26:48.271Z,26.12
2019-03-29T01:26:59.334Z,26.12
2019-03-29T01:27:11.193Z,26.22
2019-03-29T01:27:23.414Z,26.27
2019-03-29T01:27:35.272Z,26.29
2019-03-29T01:27:47.412Z,26.33
2019-03-29T01:27:59.232Z,26.34
2019-03-29T01:28:11.887Z,26.27
2019-03-29T01:28:24.050Z,26.34
2019-03-29T01:28:36.018Z,26.37
2019-03-29T01:28:47.991Z,26.30
2019-03-29T01:29:00.110Z,26.26
2019-03-29T01:29:12.152Z,26.25
2019-03-29T01:29:24.171Z,26.25
2019-03-29T01:29:35.873Z,26.27
2019-03-29T01:29:47.812Z,26.16
2019-03-29T01:29:59.089Z,26.19
2019-03-29T01:30:10.272Z,26.23
2019-03-29T01:30:21.374Z,26.27
2019-03-29T01:30:32.584Z,26.30
2019-03-29T01:30:44.353Z,26.26
2019-03-29T01:30:56.210Z,26.29
2019-03-29T01:31:07.951Z,26.26
2019-03-29T01:31:19.853Z,26.25
2019-03-29T01:31:31.693Z,26.26
2019-03-29T01:31:43.489Z,26.26
2019-03-29T01:31:55.370Z,26.23
2019-03-29T01:32:07.347Z,26.22
2019-03-29T01:32:19.154Z,26.19
2019-03-29T01:32:30.951Z,26.19
2019-03-29T01:32:45.076Z,26.19
2019-03-29T01:32:56.792Z,26.23
2019-03-29T01:33:08.690Z,26.17
2019-03-29T01:33:20.015Z,26.07
2019-03-29T01:33:31.051Z,26.09
2019-03-29T01:33:42.754Z,26.12
2019-03-29T01:33:54.436Z,26.11
2019-03-29T01:34:06.320Z,26.21
2019-03-29T01:34:18.155Z,26.16
2019-03-29T01:34:30.064Z,26.15
2019-03-29T01:34:42.965Z,26.23
2019-03-29T01:34:54.949Z,26.27
2019-03-29T01:35:06.634Z,26.29
2019-03-29T01:35:18.365Z,26.36
2019-03-29T01:35:30.111Z,26.37
2019-03-29T01:35:41.893Z,26.37
2019-03-29T01:35:52.935Z,26.40
2019-03-29T01:36:04.633Z,26.42
2019-03-29T01:36:16.334Z,26.37
2019-03-29T01:36:28.296Z,26.37
2019-03-29T01:36:39.976Z,26.30
2019-03-29T01:36:52.002Z,26.33
2019-03-29T01:37:03.752Z,26.31
2019-03-29T01:37:15.452Z,26.34
2019-03-29T01:37:27.211Z,26.34
2019-03-29T01:37:38.912Z,26.33
2019-03-29T01:37:50.611Z,26.31
2019-03-29T01:38:02.390Z,26.39
2019-03-29T01:38:21.642Z,26.32
2019-03-29T01:38:29.657Z,26.34
2019-03-29T01:38:41.200Z,26.31
2019-03-29T01:38:53.013Z,26.30
2019-03-29T01:39:04.693Z,26.29
2019-03-29T01:39:16.985Z,26.26
2019-03-29T01:39:28.876Z,26.28
2019-03-29T01:39:40.612Z,26.25
2019-03-29T01:39:52.375Z,26.20
2019-03-29T01:40:04.315Z,26.19
2019-03-29T01:40:15.933Z,26.23
2019-03-29T01:40:27.044Z,26.30
2019-03-29T01:40:38.893Z,26.32
2019-03-29T01:40:50.852Z,26.26
2019-03-29T01:41:02.653Z,26.29
2019-03-29T01:41:14.512Z,26.34
2019-03-29T01:41:26.908Z,26.31
2019-03-29T01:41:38.953Z,26.34
2019-03-29T01:41:50.870Z,26.32
2019-03-29T01:42:02.633Z,26.31
2019-03-29T01:42:14.354Z,26.29
2019-03-29T01:42:26.073Z,26.30
2019-03-29T01:42:37.094Z,26.31
2019-03-29T01:42:48.529Z,26.37
2019-03-29T01:43:00.391Z,26.33
2019-03-29T01:43:11.431Z,26.26
2019-03-29T01:43:23.252Z,26.29
2019-03-29T01:43:35.283Z,26.34
2019-03-29T01:43:47.673Z,26.25
2019-03-29T01:43:59.372Z,26.21
2019-03-29T01:44:11.152Z,26.25
2019-03-29T01:44:22.969Z,26.31
2019-03-29T01:44:34.737Z,26.37
2019-03-29T01:44:46.431Z,26.34
2019-03-29T01:44:57.512Z,26.31
2019-03-29T01:45:09.193Z,26.36
2019-03-29T01:45:20.733Z,26.32
2019-03-29T01:45:32.815Z,26.29
2019-03-29T01:45:45.314Z,26.26
2019-03-29T01:45:57.811Z,26.19
2019-03-29T01:46:09.530Z,26.22
2019-03-29T01:46:21.290Z,26.22
2019-03-29T01:46:32.851Z,26.26
2019-03-29T01:46:44.151Z,26.33
2019-03-29T01:46:55.577Z,26.37
2019-03-29T01:47:07.373Z,26.36
2019-03-29T01:47:18.498Z,26.33
2019-03-29T01:47:30.032Z,26.31
2019-03-29T01:47:42.211Z,26.30
2019-03-29T01:47:53.232Z,26.26
2019-03-29T01:48:04.972Z,26.25
2019-03-29T01:48:15.996Z,26.26
2019-03-29T01:48:27.692Z,26.25
2019-03-29T01:48:38.714Z,26.22
2019-03-29T01:48:49.730Z,26.18
2019-03-29T01:49:01.058Z,26.17
2019-03-29T01:49:12.751Z,26.19
2019-03-29T01:49:24.434Z,26.19
2019-03-29T01:49:35.417Z,26.17
2019-03-29T01:49:47.112Z,26.22
2019-03-29T01:49:58.952Z,26.22
2019-03-29T01:50:10.673Z,26.25
2019-03-29T01:50:21.695Z,26.23
2019-03-29T01:50:32.773Z,26.26
2019-03-29T01:50:44.693Z,26.18
2019-03-29T01:50:55.714Z,26.16
2019-03-29T01:51:07.393Z,26.19
2019-03-29T01:51:19.214Z,26.18
2019-03-29T01:51:31.014Z,26.23
2019-03-29T01:51:42.811Z,26.25
2019-03-29T01:51:54.494Z,26.28
2019-03-29T01:52:06.212Z,26.26
2019-03-29T01:52:17.954Z,26.32
2019-03-29T01:52:31.590Z,26.33
2019-03-29T01:52:43.393Z,26.30
2019-03-29T01:52:55.104Z,26.30
2019-03-29T01:53:06.834Z,26.26
2019-03-29T01:53:18.531Z,26.33
2019-03-29T01:53:29.570Z,26.34
2019-03-29T01:53:41.317Z,26.36
2019-03-29T01:53:53.194Z,26.34
2019-03-29T01:54:04.441Z,26.31
2019-03-29T01:54:16.251Z,26.19
2019-03-29T01:54:27.932Z,26.14
2019-03-29T01:54:41.732Z,26.11
2019-03-29T01:54:53.510Z,26.16
2019-03-29T01:55:05.211Z,26.22
2019-03-29T01:55:16.393Z,26.23
2019-03-29T01:55:28.154Z,26.27
2019-03-29T01:55:39.172Z,26.23
2019-03-29T01:55:50.191Z,26.28
2019-03-29T01:56:02.052Z,26.29
2019-03-29T01:56:14.269Z,26.26
2019-03-29T01:56:26.632Z,26.29
2019-03-29T01:56:37.670Z,26.28
2019-03-29T01:56:49.513Z,26.27
2019-03-29T01:57:01.238Z,26.36
2019-03-29T01:57:13.092Z,26.36
2019-03-29T01:57:24.953Z,26.34
2019-03-29T01:57:36.110Z,26.29
2019-03-29T01:57:48.013Z,26.27
2019-03-29T01:57:59.989Z,26.30
2019-03-29T01:58:11.694Z,26.34
2019-03-29T01:58:22.753Z,26.36
2019-03-29T01:58:34.573Z,26.36
2019-03-29T01:58:46.515Z,26.27
2019-03-29T01:58:57.751Z,26.29
2019-03-29T01:59:09.672Z,26.33
2019-03-29T01:59:21.570Z,26.39
2019-03-29T01:59:33.472Z,26.36
2019-03-29T01:59:45.234Z,26.33
2019-03-29T01:59:56.270Z,26.33
2019-03-29T02:00:09.039Z,26.36
2019-03-29T02:00:20.294Z,26.34
2019-03-29T02:00:32.060Z,26.33
2019-03-29T02:00:43.757Z,26.31
2019-03-29T02:00:55.576Z,26.31
2019-03-29T02:01:07.355Z,26.37
2019-03-29T02:01:19.071Z,26.30
2019-03-29T02:01:30.871Z,26.36
2019-03-29T02:01:42.615Z,26.37
2019-03-29T02:01:54.366Z,26.33
2019-03-29T02:02:06.875Z,26.36
2019-03-29T02:02:18.645Z,26.34
2019-03-29T02:02:30.451Z,26.29
2019-03-29T02:02:42.512Z,26.26
2019-03-29T02:02:54.194Z,26.28
2019-03-29T02:03:05.932Z,26.30
2019-03-29T02:03:17.011Z,26.33
2019-03-29T02:03:28.713Z,26.32
2019-03-29T02:03:40.479Z,26.31
2019-03-29T02:03:52.192Z,26.28
2019-03-29T02:04:05.801Z,26.25
2019-03-29T02:04:18.135Z,26.29
2019-03-29T02:04:29.752Z,26.28
2019-03-29T02:04:41.451Z,26.26
2019-03-29T02:04:52.671Z,26.27
2019-03-29T02:05:03.796Z,26.36
2019-03-29T02:05:15.014Z,26.30
2019-03-29T02:05:26.059Z,26.40
2019-03-29T02:05:37.795Z,26.37
2019-03-29T02:05:48.800Z,26.39
2019-03-29T02:06:00.511Z,26.41
2019-03-29T02:06:12.170Z,26.33
2019-03-29T02:06:24.014Z,26.29
2019-03-29T02:06:35.612Z,26.39
2019-03-29T02:06:47.790Z,26.33
2019-03-29T02:06:59.514Z,26.32
2019-03-29T02:07:11.374Z,26.29
2019-03-29T02:07:23.671Z,26.28
2019-03-29T02:07:35.990Z,26.29
2019-03-29T02:07:48.152Z,26.39
2019-03-29T02:07:59.853Z,26.33
2019-03-29T02:08:11.536Z,26.33
2019-03-29T02:08:35.156Z,26.31
2019-03-29T02:08:39.413Z,26.28
2019-03-29T02:08:51.073Z,26.35
2019-03-29T02:09:02.054Z,26.23
2019-03-29T02:09:13.334Z,26.29
2019-03-29T02:09:24.750Z,26.26
2019-03-29T02:09:36.536Z,26.26
2019-03-29T02:09:48.514Z,26.29
2019-03-29T02:09:59.597Z,26.25
2019-03-29T02:10:11.312Z,26.30
2019-03-29T02:10:23.103Z,26.26
2019-03-29T02:10:34.817Z,26.28
2019-03-29T02:10:46.610Z,26.15
2019-03-29T02:10:58.475Z,26.19
2019-03-29T02:11:10.250Z,26.34
2019-03-29T02:11:22.250Z,26.35
2019-03-29T02:11:34.337Z,26.26
2019-03-29T02:11:45.332Z,26.32
2019-03-29T02:11:56.453Z,26.32
2019-03-29T02:12:08.132Z,26.27
2019-03-29T02:12:19.814Z,26.31
2019-03-29T02:12:30.853Z,26.25
2019-03-29T02:12:42.691Z,26.25
2019-03-29T02:12:54.395Z,26.19
2019-03-29T02:13:06.292Z,26.25
2019-03-29T02:13:18.016Z,26.28
2019-03-29T02:13:29.716Z,26.31
2019-03-29T02:13:41.551Z,26.23
2019-03-29T02:13:53.235Z,26.25
2019-03-29T02:14:05.090Z,26.29
2019-03-29T02:14:17.856Z,26.29
2019-03-29T02:14:29.676Z,26.30
2019-03-29T02:14:41.436Z,26.24
2019-03-29T02:14:53.131Z,26.26
2019-03-29T02:15:04.891Z,26.23
2019-03-29T02:15:16.611Z,26.25
2019-03-29T02:15:27.632Z,26.25
2019-03-29T02:15:39.334Z,26.30
2019-03-29T02:15:51.092Z,26.36
2019-03-29T02:16:03.168Z,26.36
2019-03-29T02:16:15.651Z,26.32
2019-03-29T02:16:26.712Z,26.29
2019-03-29T02:16:38.418Z,26.33
2019-03-29T02:16:49.457Z,26.31
2019-03-29T02:17:00.693Z,26.31
2019-03-29T02:17:11.893Z,26.28
2019-03-29T02:17:23.637Z,26.29
2019-03-29T02:17:35.372Z,26.28
2019-03-29T02:17:47.247Z,26.29
2019-03-29T02:17:59.639Z,26.25
2019-03-29T02:18:11.252Z,26.26
2019-03-29T02:18:23.131Z,26.26
2019-03-29T02:18:35.034Z,26.32
2019-03-29T02:18:46.069Z,26.25
2019-03-29T02:18:57.812Z,26.34
2019-03-29T02:19:09.614Z,26.41
2019-03-29T02:19:20.656Z,26.46
2019-03-29T02:19:31.960Z,26.45
2019-03-29T02:19:45.561Z,26.32
2019-03-29T02:19:57.985Z,26.40
2019-03-29T02:20:09.854Z,26.45
2019-03-29T02:20:21.613Z,26.39
2019-03-29T02:20:32.657Z,26.32
2019-03-29T02:20:43.695Z,26.26
2019-03-29T02:20:55.592Z,26.26
2019-03-29T02:21:07.274Z,26.33
2019-03-29T02:21:18.331Z,26.32
2019-03-29T02:21:30.032Z,26.29
2019-03-29T02:21:41.093Z,26.25
2019-03-29T02:21:52.095Z,26.28
2019-03-29T02:22:04.036Z,26.30
2019-03-29T02:22:15.714Z,26.20
2019-03-29T02:22:26.833Z,26.32
2019-03-29T02:22:37.873Z,26.39
2019-03-29T02:22:49.851Z,26.43
2019-03-29T02:23:01.413Z,26.40
2019-03-29T02:23:12.557Z,26.37
2019-03-29T02:23:23.534Z,26.33
2019-03-29T02:23:35.492Z,26.37
2019-03-29T02:23:47.178Z,26.40
2019-03-29T02:23:59.210Z,26.43
2019-03-29T02:24:10.393Z,26.37
2019-03-29T02:24:22.112Z,26.39
2019-03-29T02:24:33.800Z,26.36
2019-03-29T02:24:45.513Z,26.37
2019-03-29T02:24:57.363Z,26.33
2019-03-29T02:25:09.173Z,26.26
2019-03-29T02:25:20.896Z,26.30
2019-03-29T02:25:32.570Z,26.32
2019-03-29T02:25:43.593Z,26.36
2019-03-29T02:25:55.460Z,26.33
2019-03-29T02:26:07.166Z,26.33
2019-03-29T02:26:18.873Z,26.32
2019-03-29T02:26:30.573Z,26.29
2019-03-29T02:26:42.554Z,26.35
2019-03-29T02:26:54.263Z,26.28
2019-03-29T02:27:05.967Z,26.38
2019-03-29T02:27:17.731Z,26.44
2019-03-29T02:27:29.450Z,26.50
2019-03-29T02:27:41.132Z,26.51
2019-03-29T02:27:53.021Z,26.47
2019-03-29T02:28:04.814Z,26.47
2019-03-29T02:28:16.513Z,26.52
2019-03-29T02:28:28.370Z,26.51
2019-03-29T02:28:40.336Z,26.52
2019-03-29T02:28:52.094Z,26.55
2019-03-29T02:29:03.463Z,26.48
2019-03-29T02:29:15.157Z,26.41
2019-03-29T02:29:26.733Z,26.45
2019-03-29T02:29:38.512Z,26.43
2019-03-29T02:29:50.393Z,26.45
2019-03-29T02:30:04.277Z,26.46
2019-03-29T02:30:17.438Z,26.40
2019-03-29T02:30:30.960Z,26.37
2019-03-29T02:30:43.857Z,26.40
2019-03-29T02:30:55.533Z,26.41
2019-03-29T02:31:06.553Z,26.35